Midland, Canada
Current Conditions -  °F | °C
As of 8:34 PM on Sunday 23 Nov 2014 (Local Time) from CYQA Reporting Station
Haze Haze  
Wind Chill: 35°   Ceiling: 8000
Heat Index: 41°   Visibility: 4mi
Dew Point: 41°   Wind: 9mph
Humidity: 100%   Direction: 110°ESE
Pressure: 29.73"   Gusts: NA
Location:  44.75°N, 79.89°W
Report Text: CYQA 240134Z AUTO 11008KT 4SM BR SCT005 OVC080 05/05 A2973 RMK PRESFR SLP075
Loading
Personal Weather Stations






























Interactive Weather Map New forecast layout! Learn more

10-Day Weather Forecast

Advertisements
Track Severe Weather on mobile